Time;durP1;ratioP1;P1;durP2;ratioP2;P2;SDS_P1;SDS_P2;PMS_P1;PMS_P2;Temp;Humidity;BMP_temperature;BMP_pressure;BME280_temperature;BME280_humidity;BME280_pressure;Samples;Min_cycle;Max_cycle;Signal;HPM_P1;HPM_P2
2021/07/14 00:02:18;;;;;;;11.13;7.60;;;;;;;;;;5126109;28;20020;-68
2021/07/14 00:04:44;;;;;;;10.60;5.50;;;;;;;;;;5126043;28;20024;-68
2021/07/14 00:07:10;;;;;;;8.13;5.65;;;;;;;;;;5109769;28;20479;-68
2021/07/14 00:11:14;;;;;;;11.85;6.35;;;;;;;;;;5110543;27;20409;-68
2021/07/14 00:14:04;;;;;;;11.20;6.13;;;;;;;;;;5110453;28;20020;-67
2021/07/14 00:22:13;;;;;;;11.15;6.88;;;;;;;;;;5110176;28;20046;-67
2021/07/14 00:24:39;;;;;;;9.00;6.60;;;;;;;;;;5110321;28;20027;-67
2021/07/14 00:27:20;;;;;;;8.60;5.95;;;;;;;;;;5110454;27;20389;-67
2021/07/14 00:29:55;;;;;;;10.18;6.63;;;;;;;;;;5109984;28;20024;-67
2021/07/14 00:32:21;;;;;;;10.63;6.47;;;;;;;;;;5110433;28;20043;-67
2021/07/14 00:34:47;;;;;;;9.52;6.15;;;;;;;;;;5110376;28;20077;-68
2021/07/14 00:37:14;;;;;;;7.78;5.38;;;;;;;;;;5109946;28;20027;-69
2021/07/14 00:39:44;;;;;;;9.40;5.47;;;;;;;;;;5109320;28;20433;-69
2021/07/14 00:42:11;;;;;;;9.32;6.00;;;;;;;;;;5108731;28;20022;-69
2021/07/14 00:46:32;;;;;;;10.10;6.50;;;;;;;;;;5110402;27;20773;-68
2021/07/14 00:48:59;;;;;;;9.48;6.40;;;;;;;;;;5110521;28;20020;-68
2021/07/14 00:51:26;;;;;;;9.45;6.15;;;;;;;;;;5109979;28;20024;-69
2021/07/14 00:53:53;;;;;;;9.07;5.53;;;;;;;;;;5110429;28;20016;-68
2021/07/14 00:56:20;;;;;;;15.43;8.75;;;;;;;;;;5108538;28;20065;-68
2021/07/14 00:59:50;;;;;;;10.32;7.22;;;;;;;;;;5131006;27;20464;-67
2021/07/14 01:04:31;;;;;;;8.95;5.93;;;;;;;;;;5110184;27;20393;-67
2021/07/14 01:08:20;;;;;;;10.65;6.35;;;;;;;;;;5110524;27;20462;-67
2021/07/14 01:10:56;;;;;;;10.52;5.95;;;;;;;;;;5110133;28;20024;-67
2021/07/14 01:13:43;;;;;;;13.45;6.82;;;;;;;;;;5110423;28;20024;-68
2021/07/14 01:16:14;;;;;;;8.40;5.90;;;;;;;;;;5110372;28;20019;-68
2021/07/14 01:18:49;;;;;;;8.77;5.93;;;;;;;;;;5108673;28;20031;-68
2021/07/14 01:21:17;;;;;;;10.63;6.50;;;;;;;;;;5109120;28;20034;-68
2021/07/14 01:23:53;;;;;;;11.07;5.95;;;;;;;;;;5110310;28;20073;-68
2021/07/14 01:26:28;;;;;;;11.27;6.95;;;;;;;;;;5109681;28;20024;-68
2021/07/14 01:28:55;;;;;;;8.90;6.43;;;;;;;;;;5110083;28;20028;-68
2021/07/14 01:31:23;;;;;;;9.70;6.70;;;;;;;;;;5108307;28;20027;-68
2021/07/14 01:33:53;;;;;;;9.85;6.80;;;;;;;;;;5109972;28;20502;-68
2021/07/14 01:36:20;;;;;;;8.98;6.10;;;;;;;;;;5110246;28;20139;-68
2021/07/14 01:38:47;;;;;;;10.48;7.05;;;;;;;;;;5109535;28;20024;-68
2021/07/14 01:41:17;;;;;;;10.65;7.07;;;;;;;;;;5109992;28;20426;-68
2021/07/14 01:43:49;;;;;;;9.65;5.75;;;;;;;;;;5110586;28;20102;-68
2021/07/14 01:46:15;;;;;;;9.55;5.78;;;;;;;;;;5109295;28;20108;-69
2021/07/14 01:48:43;;;;;;;9.10;6.78;;;;;;;;;;5109756;28;20032;-69
2021/07/14 01:52:28;;;;;;;10.27;6.47;;;;;;;;;;5110019;27;20532;-67
2021/07/14 01:54:56;;;;;;;10.75;6.50;;;;;;;;;;5109170;28;20106;-67
2021/07/14 01:57:23;;;;;;;11.48;6.63;;;;;;;;;;5110398;28;20475;-67
2021/07/14 01:59:49;;;;;;;11.40;7.05;;;;;;;;;;5110018;28;20091;-67
2021/07/14 02:02:17;;;;;;;7.55;5.30;;;;;;;;;;5110584;28;20437;-68
2021/07/14 02:04:45;;;;;;;12.10;7.00;;;;;;;;;;5110444;28;20030;-68
2021/07/14 02:07:15;;;;;;;10.93;6.30;;;;;;;;;;5109826;28;20077;-68
2021/07/14 02:10:40;;;;;;;10.50;6.90;;;;;;;;;;5110429;27;20446;-69
2021/07/14 02:13:31;;;;;;;10.68;6.57;;;;;;;;;;5110341;27;20392;-68
2021/07/14 02:15:58;;;;;;;9.70;6.07;;;;;;;;;;5109109;28;20115;-68
2021/07/14 02:18:26;;;;;;;10.55;5.85;;;;;;;;;;5108988;28;20450;-68
2021/07/14 02:20:55;;;;;;;11.50;7.30;;;;;;;;;;5108725;28;20406;-68
2021/07/14 02:23:22;;;;;;;12.05;7.00;;;;;;;;;;5110542;28;20016;-68
2021/07/14 02:25:48;;;;;;;9.77;6.88;;;;;;;;;;5110407;28;20081;-68
2021/07/14 02:28:14;;;;;;;11.15;7.20;;;;;;;;;;5109863;28;20024;-68
2021/07/14 02:30:40;;;;;;;13.00;7.13;;;;;;;;;;5110071;28;20095;-69
2021/07/14 02:33:08;;;;;;;9.45;6.53;;;;;;;;;;5110071;28;20032;-68
2021/07/14 02:35:35;;;;;;;8.50;6.10;;;;;;;;;;5109627;28;20019;-68
2021/07/14 02:38:04;;;;;;;8.35;6.20;;;;;;;;;;5110008;28;20024;-68
2021/07/14 02:40:36;;;;;;;11.82;7.30;;;;;;;;;;5110080;28;20016;-69
2021/07/14 02:44:39;;;;;;;10.05;6.28;;;;;;;;;;5110668;27;20900;-68
2021/07/14 02:47:06;;;;;;;9.32;6.38;;;;;;;;;;5110420;28;20058;-67
2021/07/14 02:49:32;;;;;;;9.30;6.28;;;;;;;;;;5109938;28;20437;-67
2021/07/14 02:51:59;;;;;;;8.98;6.13;;;;;;;;;;5109086;28;20027;-68
2021/07/14 02:54:28;;;;;;;10.25;6.82;;;;;;;;;;5108945;28;20070;-67
2021/07/14 02:57:01;;;;;;;11.80;8.18;;;;;;;;;;5109793;28;20020;-69
2021/07/14 02:59:32;;;;;;;10.43;6.88;;;;;;;;;;5110199;28;20031;-67
2021/07/14 03:01:59;;;;;;;9.75;6.25;;;;;;;;;;5109029;28;20060;-67
2021/07/14 03:04:27;;;;;;;14.27;8.30;;;;;;;;;;5109818;28;20071;-68
2021/07/14 03:06:55;;;;;;;10.00;7.38;;;;;;;;;;5110129;28;20415;-67
2021/07/14 03:09:31;;;;;;;9.48;6.68;;;;;;;;;;5110078;28;20024;-67
2021/07/14 03:11:57;;;;;;;8.75;5.90;;;;;;;;;;5109660;28;20103;-68
2021/07/14 03:14:23;;;;;;;11.07;6.55;;;;;;;;;;5108613;28;20032;-68
2021/07/14 03:16:50;;;;;;;13.10;8.25;;;;;;;;;;5108201;28;20031;-68
2021/07/14 03:19:16;;;;;;;12.88;8.15;;;;;;;;;;5109882;28;20024;-68
2021/07/14 03:21:43;;;;;;;11.20;6.93;;;;;;;;;;5110189;28;20024;-68
2021/07/14 03:24:09;;;;;;;11.27;6.32;;;;;;;;;;5109478;28;20039;-68
2021/07/14 03:26:37;;;;;;;12.82;7.40;;;;;;;;;;5109743;28;20020;-68
2021/07/14 03:29:04;;;;;;;9.98;6.20;;;;;;;;;;5108297;28;20487;-68
2021/07/14 03:31:30;;;;;;;10.27;6.80;;;;;;;;;;5109198;28;20019;-68
2021/07/14 03:33:58;;;;;;;10.55;7.38;;;;;;;;;;5109465;28;20020;-68
2021/07/14 03:37:52;;;;;;;13.57;8.27;;;;;;;;;;5110476;27;20510;-67
2021/07/14 03:40:19;;;;;;;9.45;6.72;;;;;;;;;;5110440;28;20034;-68
2021/07/14 03:42:47;;;;;;;10.65;7.40;;;;;;;;;;5110569;28;20031;-68
2021/07/14 03:45:14;;;;;;;11.70;7.15;;;;;;;;;;5108692;28;20082;-67
2021/07/14 03:47:41;;;;;;;9.00;5.78;;;;;;;;;;5110319;28;20476;-68
2021/07/14 03:50:08;;;;;;;11.90;7.65;;;;;;;;;;5110274;28;20055;-67
2021/07/14 03:52:35;;;;;;;12.05;8.38;;;;;;;;;;5109905;28;20028;-67
2021/07/14 03:55:02;;;;;;;15.85;8.90;;;;;;;;;;5110162;28;20453;-67
2021/07/14 03:57:29;;;;;;;10.70;7.28;;;;;;;;;;5108790;28;20058;-67
2021/07/14 03:59:56;;;;;;;12.40;7.93;;;;;;;;;;5109682;28;20471;-67
2021/07/14 04:02:45;;;;;;;10.55;6.35;;;;;;;;;;5050197;28;20401;-69
2021/07/14 04:05:13;;;;;;;12.48;7.22;;;;;;;;;;5049988;28;20029;-70
2021/07/14 04:07:41;;;;;;;9.50;6.50;;;;;;;;;;5049426;28;20123;-71
2021/07/14 04:10:08;;;;;;;11.73;6.60;;;;;;;;;;5049842;28;20041;-69
2021/07/14 04:12:34;;;;;;;11.60;7.10;;;;;;;;;;5049677;28;20036;-69
2021/07/14 04:15:01;;;;;;;9.15;6.70;;;;;;;;;;5049329;28;20021;-69
2021/07/14 04:18:55;;;;;;;11.07;6.78;;;;;;;;;;5110461;27;20446;-70
2021/07/14 04:22:40;;;;;;;19.02;7.88;;;;;;;;;;5110671;27;20409;-69
2021/07/14 04:25:07;;;;;;;10.65;7.75;;;;;;;;;;5110643;28;20080;-69
2021/07/14 04:29:39;;;;;;;12.55;7.75;;;;;;;;;;5110522;27;20500;-69
2021/07/14 04:32:54;;;;;;;9.30;6.38;;;;;;;;;;5110474;27;20397;-69
2021/07/14 04:35:21;;;;;;;13.02;8.68;;;;;;;;;;5110097;28;20031;-70
2021/07/14 04:37:49;;;;;;;12.38;7.07;;;;;;;;;;5110418;28;20061;-69
2021/07/14 04:41:30;;;;;;;10.57;7.25;;;;;;;;;;5110177;27;20454;-69
2021/07/14 04:44:01;;;;;;;9.98;7.38;;;;;;;;;;5110656;28;20031;-68
2021/07/14 04:46:27;;;;;;;11.75;8.10;;;;;;;;;;5110457;28;20034;-68
2021/07/14 04:48:53;;;;;;;13.32;6.68;;;;;;;;;;5110273;28;20020;-68
2021/07/14 04:51:20;;;;;;;21.08;16.98;;;;;;;;;;5110219;28;20031;-70
2021/07/14 04:53:46;;;;;;;13.27;9.18;;;;;;;;;;5110295;28;20016;-70
2021/07/14 04:56:13;;;;;;;12.15;8.85;;;;;;;;;;5109851;28;20032;-70
2021/07/14 04:58:39;;;;;;;13.05;7.72;;;;;;;;;;5110128;28;20044;-68
2021/07/14 05:01:06;;;;;;;13.30;7.97;;;;;;;;;;5110164;28;20036;-68
2021/07/14 05:03:32;;;;;;;10.20;7.45;;;;;;;;;;5108594;28;20027;-68
2021/07/14 05:05:58;;;;;;;10.10;7.55;;;;;;;;;;5109994;28;20024;-68
2021/07/14 05:08:24;;;;;;;11.27;8.35;;;;;;;;;;5109915;28;20472;-68
2021/07/14 05:10:50;;;;;;;11.23;7.65;;;;;;;;;;5109466;28;20406;-68
2021/07/14 05:14:33;;;;;;;11.57;7.10;;;;;;;;;;5110374;27;20389;-67
2021/07/14 05:16:59;;;;;;;10.68;7.57;;;;;;;;;;5110024;28;20028;-67
2021/07/14 05:21:06;;;;;;;10.30;6.82;;;;;;;;;;5110428;27;20920;-67
2021/07/14 05:23:33;;;;;;;8.75;6.60;;;;;;;;;;5110628;28;20488;-67
2021/07/14 05:26:00;;;;;;;10.23;6.70;;;;;;;;;;5110056;28;20488;-67
2021/07/14 05:28:26;;;;;;;10.75;7.07;;;;;;;;;;5110368;28;20032;-67
2021/07/14 05:30:53;;;;;;;11.13;7.65;;;;;;;;;;5108584;28;20028;-68
2021/07/14 05:33:19;;;;;;;10.73;7.75;;;;;;;;;;5110177;28;20020;-68
2021/07/14 05:35:46;;;;;;;11.73;7.30;;;;;;;;;;5110299;28;20058;-70
2021/07/14 05:38:19;;;;;;;10.60;7.53;;;;;;;;;;5109811;28;20065;-69
2021/07/14 05:40:46;;;;;;;11.68;8.30;;;;;;;;;;5108874;28;20079;-68
2021/07/14 05:43:12;;;;;;;12.93;7.47;;;;;;;;;;5110076;28;20028;-70
2021/07/14 05:45:39;;;;;;;12.13;8.40;;;;;;;;;;5108024;28;20032;-69
2021/07/14 05:48:05;;;;;;;10.65;7.75;;;;;;;;;;5110064;28;20023;-69
2021/07/14 05:50:31;;;;;;;11.50;8.07;;;;;;;;;;5109995;28;20031;-71
2021/07/14 05:52:57;;;;;;;11.73;8.18;;;;;;;;;;5109553;28;20017;-70
2021/07/14 05:55:23;;;;;;;13.85;8.20;;;;;;;;;;5109779;28;20031;-70
2021/07/14 05:57:52;;;;;;;13.93;8.32;;;;;;;;;;5109819;28;20020;-70
2021/07/14 06:00:18;;;;;;;12.18;7.43;;;;;;;;;;5109346;28;20028;-69
2021/07/14 06:02:44;;;;;;;14.13;7.78;;;;;;;;;;5109303;28;20027;-70
2021/07/14 06:05:12;;;;;;;13.55;9.15;;;;;;;;;;5107787;28;20043;-71
2021/07/14 06:07:39;;;;;;;12.50;8.30;;;;;;;;;;5107615;28;20020;-70
2021/07/14 06:10:06;;;;;;;13.43;8.27;;;;;;;;;;5106808;28;20114;-70
2021/07/14 06:12:32;;;;;;;12.60;8.23;;;;;;;;;;5108349;28;20126;-70
2021/07/14 06:14:58;;;;;;;16.27;9.27;;;;;;;;;;5107615;28;20024;-71
2021/07/14 06:17:25;;;;;;;12.75;8.82;;;;;;;;;;5108417;28;20061;-70
2021/07/14 06:20:23;;;;;;;12.27;8.82;;;;;;;;;;5069584;28;20399;-69
2021/07/14 06:22:49;;;;;;;11.80;8.32;;;;;;;;;;5070053;28;20077;-69
2021/07/14 06:25:16;;;;;;;11.57;8.40;;;;;;;;;;5070044;28;20525;-70
2021/07/14 06:27:43;;;;;;;11.65;7.60;;;;;;;;;;5068052;28;20027;-69
2021/07/14 06:32:13;;;;;;;10.18;7.82;;;;;;;;;;5110413;27;20985;-69
2021/07/14 06:34:40;;;;;;;11.60;8.82;;;;;;;;;;5110143;28;20479;-68
2021/07/14 06:39:01;;;;;;;12.38;8.32;;;;;;;;;;5110469;27;20401;-68
2021/07/14 06:41:27;;;;;;;13.65;9.45;;;;;;;;;;5107990;28;20077;-69
2021/07/14 06:43:55;;;;;;;12.25;9.23;;;;;;;;;;5109106;28;20081;-68
2021/07/14 06:46:21;;;;;;;14.73;10.00;;;;;;;;;;5108447;28;20041;-67
2021/07/14 06:48:47;;;;;;;16.88;11.05;;;;;;;;;;5109649;28;20023;-69
2021/07/14 06:51:13;;;;;;;15.77;10.93;;;;;;;;;;5109037;28;20510;-70
2021/07/14 06:53:40;;;;;;;15.10;10.27;;;;;;;;;;5109489;28;20031;-69
2021/07/14 06:56:06;;;;;;;14.52;9.65;;;;;;;;;;5107568;28;20539;-70
2021/07/14 06:58:36;;;;;;;15.15;9.40;;;;;;;;;;5107926;28;20412;-69
2021/07/14 07:01:03;;;;;;;13.27;8.85;;;;;;;;;;5106730;28;20027;-70
2021/07/14 07:03:30;;;;;;;12.65;9.30;;;;;;;;;;5106741;28;20531;-70
2021/07/14 07:05:56;;;;;;;11.80;8.77;;;;;;;;;;5109438;28;20024;-70
2021/07/14 07:08:22;;;;;;;14.60;9.07;;;;;;;;;;5109414;28;20016;-70
2021/07/14 07:10:49;;;;;;;13.85;9.50;;;;;;;;;;5109039;28;20091;-71
2021/07/14 07:13:18;;;;;;;14.07;9.88;;;;;;;;;;5109610;28;20216;-71
2021/07/14 07:15:45;;;;;;;14.27;9.82;;;;;;;;;;5109680;28;20098;-69
2021/07/14 07:18:12;;;;;;;13.68;9.60;;;;;;;;;;5107671;28;20054;-71
2021/07/14 07:20:38;;;;;;;13.77;9.85;;;;;;;;;;5106848;28;20035;-73
2021/07/14 07:23:05;;;;;;;11.93;9.40;;;;;;;;;;5108165;28;20020;-71
2021/07/14 07:25:31;;;;;;;13.57;8.60;;;;;;;;;;5107599;28;20483;-72
2021/07/14 07:28:00;;;;;;;13.95;9.00;;;;;;;;;;5107757;28;20476;-70
2021/07/14 07:30:26;;;;;;;12.85;8.90;;;;;;;;;;5106053;28;20475;-69
2021/07/14 07:32:53;;;;;;;13.07;8.90;;;;;;;;;;5106628;28;20547;-68
2021/07/14 07:35:19;;;;;;;15.80;9.38;;;;;;;;;;5108987;28;20030;-69
2021/07/14 07:37:45;;;;;;;15.70;10.15;;;;;;;;;;5108668;28;20054;-70
2021/07/14 07:40:12;;;;;;;17.00;9.15;;;;;;;;;;5109212;28;20077;-69
2021/07/14 07:42:38;;;;;;;14.27;8.95;;;;;;;;;;5109162;28;20480;-69
2021/07/14 07:45:05;;;;;;;11.70;8.25;;;;;;;;;;5109106;28;20020;-69
2021/07/14 07:47:31;;;;;;;12.52;8.60;;;;;;;;;;5109232;28;20098;-69
2021/07/14 07:49:58;;;;;;;16.80;7.88;;;;;;;;;;5097402;28;20065;-70
2021/07/14 07:52:24;;;;;;;12.40;7.97;;;;;;;;;;5094874;28;20032;-69
2021/07/14 07:54:51;;;;;;;16.00;8.73;;;;;;;;;;5095415;28;20024;-69
2021/07/14 07:57:17;;;;;;;12.70;8.05;;;;;;;;;;5095220;28;20375;-69
2021/07/14 07:59:43;;;;;;;12.00;7.60;;;;;;;;;;5095045;28;20024;-69
2021/07/14 08:02:10;;;;;;;10.27;7.22;;;;;;;;;;5095223;28;20103;-69
2021/07/14 08:04:36;;;;;;;12.00;7.70;;;;;;;;;;5094111;28;20081;-69
2021/07/14 08:07:03;;;;;;;10.88;8.30;;;;;;;;;;5093660;28;20028;-69
2021/07/14 08:09:29;;;;;;;18.13;8.23;;;;;;;;;;5095077;28;20104;-67
2021/07/14 08:11:55;;;;;;;12.10;7.93;;;;;;;;;;5093905;28;20028;-69
2021/07/14 08:14:21;;;;;;;11.85;8.68;;;;;;;;;;5093331;28;20077;-68
2021/07/14 08:16:48;;;;;;;12.25;8.95;;;;;;;;;;5094733;28;20388;-69
2021/07/14 08:19:14;;;;;;;12.32;8.80;;;;;;;;;;5094299;28;20031;-69
2021/07/14 08:21:40;;;;;;;11.35;8.65;;;;;;;;;;5093104;28;20020;-69
2021/07/14 08:24:08;;;;;;;12.20;8.63;;;;;;;;;;5094403;28;20028;-69
2021/07/14 08:26:34;;;;;;;15.15;9.00;;;;;;;;;;5093578;28;20357;-70
2021/07/14 08:29:00;;;;;;;17.30;9.50;;;;;;;;;;5094761;28;20032;-69
2021/07/14 08:31:26;;;;;;;11.10;8.43;;;;;;;;;;5094766;28;20035;-69
2021/07/14 08:33:52;;;;;;;10.30;7.43;;;;;;;;;;5094252;28;20035;-69
2021/07/14 08:36:18;;;;;;;15.18;8.55;;;;;;;;;;5093352;28;20024;-68
2021/07/14 08:38:45;;;;;;;10.90;7.35;;;;;;;;;;5094261;28;20568;-69
2021/07/14 08:41:11;;;;;;;12.48;8.75;;;;;;;;;;5092804;28;20035;-68
2021/07/14 08:43:40;;;;;;;12.13;8.02;;;;;;;;;;5094234;28;20032;-68
2021/07/14 08:46:07;;;;;;;13.77;7.53;;;;;;;;;;5094492;28;20020;-69
2021/07/14 08:48:34;;;;;;;18.42;8.27;;;;;;;;;;5093721;28;20048;-68
2021/07/14 08:51:00;;;;;;;13.07;8.48;;;;;;;;;;5094043;28;20125;-70
2021/07/14 08:53:28;;;;;;;13.65;8.65;;;;;;;;;;5092048;28;20050;-69
2021/07/14 08:55:55;;;;;;;9.32;7.60;;;;;;;;;;5088862;28;20036;-66
2021/07/14 08:58:22;;;;;;;10.65;7.78;;;;;;;;;;5086100;28;20032;-68
2021/07/14 09:00:49;;;;;;;15.57;7.85;;;;;;;;;;5094833;28;20541;-70
2021/07/14 09:03:15;;;;;;;10.45;7.30;;;;;;;;;;5093773;28;20052;-68
2021/07/14 09:05:42;;;;;;;10.27;6.85;;;;;;;;;;5094129;28;20024;-68
2021/07/14 09:08:08;;;;;;;9.43;6.85;;;;;;;;;;5093712;28;20028;-67
2021/07/14 09:10:35;;;;;;;8.90;6.30;;;;;;;;;;5093295;28;20107;-69
2021/07/14 09:13:02;;;;;;;9.38;7.15;;;;;;;;;;5093806;28;20020;-67
2021/07/14 09:15:31;;;;;;;9.70;7.13;;;;;;;;;;5093865;28;20424;-68
2021/07/14 09:18:01;;;;;;;10.60;7.32;;;;;;;;;;5092105;28;20040;-68
2021/07/14 09:20:37;;;;;;;10.27;7.07;;;;;;;;;;5093747;28;20017;-67
2021/07/14 09:23:03;;;;;;;10.50;7.00;;;;;;;;;;5093267;28;20107;-69
2021/07/14 09:25:30;;;;;;;9.88;6.78;;;;;;;;;;5093829;28;20479;-68
2021/07/14 09:27:58;;;;;;;12.05;7.75;;;;;;;;;;5093434;28;20034;-68
2021/07/14 09:30:26;;;;;;;9.77;6.88;;;;;;;;;;5092500;28;20028;-66
2021/07/14 09:32:56;;;;;;;14.65;7.28;;;;;;;;;;5084625;28;20028;-67
2021/07/14 09:35:26;;;;;;;9.63;6.45;;;;;;;;;;5076147;28;20016;-68
2021/07/14 09:37:52;;;;;;;9.43;6.47;;;;;;;;;;5079745;28;20131;-68
2021/07/14 09:40:19;;;;;;;10.90;6.70;;;;;;;;;;5076931;28;20033;-67
2021/07/14 09:43:02;;;;;;;12.48;6.95;;;;;;;;;;5071722;28;20425;-68
2021/07/14 09:45:38;;;;;;;9.48;5.63;;;;;;;;;;5083228;28;20020;-68
2021/07/14 09:48:05;;;;;;;11.00;6.55;;;;;;;;;;5092766;28;20024;-69
2021/07/14 09:50:35;;;;;;;16.27;6.68;;;;;;;;;;5091840;28;20020;-68
2021/07/14 09:53:03;;;;;;;8.90;6.70;;;;;;;;;;5091463;28;20034;-68
2021/07/14 09:55:30;;;;;;;11.57;6.68;;;;;;;;;;5091715;28;20024;-69
2021/07/14 09:58:06;;;;;;;9.32;5.90;;;;;;;;;;5092442;28;20055;-68
2021/07/14 10:00:38;;;;;;;11.95;6.50;;;;;;;;;;5092758;28;20095;-67
2021/07/14 10:03:04;;;;;;;8.50;6.35;;;;;;;;;;5092346;28;20016;-68
2021/07/14 10:05:31;;;;;;;11.18;6.75;;;;;;;;;;5090219;28;20488;-68
2021/07/14 10:08:15;;;;;;;10.02;6.65;;;;;;;;;;5091368;28;20035;-69
2021/07/14 10:10:41;;;;;;;10.45;6.28;;;;;;;;;;5089687;28;20023;-69
2021/07/14 10:13:08;;;;;;;7.97;5.18;;;;;;;;;;5088322;28;20077;-69
2021/07/14 10:15:35;;;;;;;9.60;5.72;;;;;;;;;;5090308;28;20020;-69
2021/07/14 10:18:01;;;;;;;8.85;5.70;;;;;;;;;;5088876;28;20388;-69
2021/07/14 10:20:30;;;;;;;7.78;5.97;;;;;;;;;;5090115;28;20099;-69
2021/07/14 10:22:56;;;;;;;7.35;5.50;;;;;;;;;;5089180;28;20095;-70
2021/07/14 10:25:23;;;;;;;11.02;5.93;;;;;;;;;;5089795;28;20044;-69
2021/07/14 10:27:50;;;;;;;11.75;6.05;;;;;;;;;;5089575;28;20035;-69
2021/07/14 10:30:17;;;;;;;8.48;5.43;;;;;;;;;;5089711;28;20078;-69
2021/07/14 10:32:43;;;;;;;9.85;6.63;;;;;;;;;;5090601;28;20031;-70
2021/07/14 10:35:14;;;;;;;10.02;5.95;;;;;;;;;;5089927;28;20020;-70
2021/07/14 10:37:42;;;;;;;8.50;6.10;;;;;;;;;;5090161;28;20150;-70
2021/07/14 10:40:08;;;;;;;8.07;5.47;;;;;;;;;;5089018;28;20039;-70
2021/07/14 10:42:35;;;;;;;7.35;5.30;;;;;;;;;;5090610;28;20028;-70
2021/07/14 10:45:03;;;;;;;11.90;5.70;;;;;;;;;;5090633;28;20099;-70
2021/07/14 10:47:30;;;;;;;7.82;5.40;;;;;;;;;;5090382;28;20491;-70
2021/07/14 10:49:57;;;;;;;9.13;6.15;;;;;;;;;;5090738;28;20092;-70
2021/07/14 10:52:24;;;;;;;13.90;6.35;;;;;;;;;;5091005;28;20384;-71
2021/07/14 10:54:52;;;;;;;8.30;5.97;;;;;;;;;;5090890;28;20476;-70
2021/07/14 10:57:19;;;;;;;8.60;6.03;;;;;;;;;;5091304;28;20119;-70
2021/07/14 10:59:46;;;;;;;6.45;4.72;;;;;;;;;;5092276;28;20488;-71
2021/07/14 11:02:14;;;;;;;8.45;5.30;;;;;;;;;;5092129;28;20027;-70
2021/07/14 11:04:42;;;;;;;6.80;5.03;;;;;;;;;;5092456;28;20047;-70
2021/07/14 11:07:09;;;;;;;8.80;6.03;;;;;;;;;;5092714;28;20027;-70
2021/07/14 11:09:36;;;;;;;8.13;5.57;;;;;;;;;;5090746;28;20507;-72
2021/07/14 11:12:07;;;;;;;9.10;5.18;;;;;;;;;;5092647;28;20479;-71
2021/07/14 11:14:34;;;;;;;8.77;5.47;;;;;;;;;;5092367;28;20020;-71
2021/07/14 11:17:00;;;;;;;10.32;6.47;;;;;;;;;;5091936;28;20016;-71
2021/07/14 11:19:42;;;;;;;7.60;4.80;;;;;;;;;;5091129;28;20032;-71
2021/07/14 11:22:09;;;;;;;10.20;5.97;;;;;;;;;;5091039;28;20553;-71
2021/07/14 11:24:49;;;;;;;8.57;5.90;;;;;;;;;;5093898;28;20031;-71
2021/07/14 11:27:24;;;;;;;8.75;4.93;;;;;;;;;;5095005;28;20028;-71
2021/07/14 11:29:54;;;;;;;9.40;6.10;;;;;;;;;;5095667;28;20032;-70
2021/07/14 11:32:37;;;;;;;7.95;5.40;;;;;;;;;;5094649;28;20568;-71
2021/07/14 11:35:07;;;;;;;6.10;4.57;;;;;;;;;;5094681;28;20030;-71
2021/07/14 11:37:34;;;;;;;7.40;5.22;;;;;;;;;;5095048;28;20043;-70
2021/07/14 11:40:18;;;;;;;8.68;5.30;;;;;;;;;;5095839;28;20060;-70
2021/07/14 11:42:48;;;;;;;7.78;4.95;;;;;;;;;;5094458;28;20028;-70
2021/07/14 11:45:14;;;;;;;7.72;4.68;;;;;;;;;;5095544;28;20024;-70
2021/07/14 11:47:40;;;;;;;9.38;5.55;;;;;;;;;;5095799;28;20021;-70
2021/07/14 11:50:07;;;;;;;7.07;4.68;;;;;;;;;;5095593;28;20476;-70
2021/07/14 11:52:41;;;;;;;11.00;5.05;;;;;;;;;;5095055;28;20025;-71
2021/07/14 11:55:25;;;;;;;11.55;5.18;;;;;;;;;;5095576;28;20028;-72
2021/07/14 11:57:52;;;;;;;9.93;5.45;;;;;;;;;;5095096;28;20044;-74
2021/07/14 12:00:30;;;;;;;7.82;5.28;;;;;;;;;;5095582;28;20043;-72
2021/07/14 12:03:00;;;;;;;8.00;5.60;;;;;;;;;;5095291;28;20016;-72
2021/07/14 12:05:31;;;;;;;7.53;5.03;;;;;;;;;;5095072;28;20021;-71
2021/07/14 12:08:10;;;;;;;6.93;5.03;;;;;;;;;;5095456;28;20016;-73
2021/07/14 12:10:36;;;;;;;7.82;4.78;;;;;;;;;;5094001;28;20032;-72
2021/07/14 12:13:06;;;;;;;6.80;4.97;;;;;;;;;;5094733;28;20027;-71
2021/07/14 12:15:33;;;;;;;8.77;4.75;;;;;;;;;;5095116;28;20020;-71
2021/07/14 12:18:08;;;;;;;7.32;4.70;;;;;;;;;;5094713;28;20133;-71
2021/07/14 12:20:36;;;;;;;7.95;4.40;;;;;;;;;;5093340;28;20024;-72
2021/07/14 12:23:13;;;;;;;10.15;4.18;;;;;;;;;;5093728;28;20101;-70
2021/07/14 12:25:39;;;;;;;5.22;3.55;;;;;;;;;;5094716;28;20024;-72
2021/07/14 12:28:09;;;;;;;8.18;4.05;;;;;;;;;;5095107;28;20535;-71
2021/07/14 12:30:36;;;;;;;8.23;5.07;;;;;;;;;;5094817;28;20039;-72
2021/07/14 12:33:04;;;;;;;6.68;4.30;;;;;;;;;;5094502;28;20016;-71
2021/07/14 12:35:34;;;;;;;7.25;4.10;;;;;;;;;;5094664;28;20024;-70
2021/07/14 12:38:03;;;;;;;9.32;4.60;;;;;;;;;;5094419;28;20103;-70
2021/07/14 12:40:30;;;;;;;6.93;4.40;;;;;;;;;;5094203;28;20415;-71
2021/07/14 12:42:57;;;;;;;7.30;4.00;;;;;;;;;;5094632;28;20381;-70
2021/07/14 12:45:26;;;;;;;6.38;3.90;;;;;;;;;;5094629;28;20023;-71
2021/07/14 12:47:53;;;;;;;8.20;4.13;;;;;;;;;;5094440;28;20020;-71
2021/07/14 12:50:20;;;;;;;7.07;3.70;;;;;;;;;;5094469;28;20372;-71
2021/07/14 12:52:53;;;;;;;7.15;4.30;;;;;;;;;;5094359;28;20027;-71
2021/07/14 12:55:20;;;;;;;8.85;3.92;;;;;;;;;;5094286;28;20031;-72
2021/07/14 12:57:48;;;;;;;7.38;4.05;;;;;;;;;;5094305;28;20120;-72
2021/07/14 13:00:16;;;;;;;7.53;3.72;;;;;;;;;;5093006;28;20024;-71
2021/07/14 13:02:44;;;;;;;11.15;4.00;;;;;;;;;;5092651;28;20039;-70
2021/07/14 13:05:17;;;;;;;6.00;3.92;;;;;;;;;;5094263;28;20021;-70
2021/07/14 13:07:54;;;;;;;5.57;3.90;;;;;;;;;;5094109;28;20046;-71
2021/07/14 13:10:23;;;;;;;8.73;4.50;;;;;;;;;;5094109;28;20043;-71
2021/07/14 13:12:53;;;;;;;7.60;4.47;;;;;;;;;;5094023;28;20407;-70
2021/07/14 13:15:27;;;;;;;6.43;3.42;;;;;;;;;;5092335;28;20023;-71
2021/07/14 13:18:04;;;;;;;8.88;4.47;;;;;;;;;;5093900;28;20733;-71
2021/07/14 13:20:40;;;;;;;5.85;4.18;;;;;;;;;;5093965;28;20028;-71
2021/07/14 13:23:07;;;;;;;6.25;3.70;;;;;;;;;;5093578;28;20028;-70
2021/07/14 13:25:39;;;;;;;6.47;3.85;;;;;;;;;;5092539;28;20123;-71
2021/07/14 13:28:19;;;;;;;8.95;4.15;;;;;;;;;;5092583;28;20029;-70
2021/07/14 13:31:00;;;;;;;8.90;3.70;;;;;;;;;;5093349;28;20089;-70
2021/07/14 13:33:37;;;;;;;6.93;4.07;;;;;;;;;;5093613;28;20024;-70
2021/07/14 13:36:05;;;;;;;5.65;3.15;;;;;;;;;;5093265;28;20024;-69
2021/07/14 13:38:36;;;;;;;6.68;3.33;;;;;;;;;;5093135;28;20055;-69
2021/07/14 13:41:12;;;;;;;7.65;3.80;;;;;;;;;;5093440;28;20027;-69
2021/07/14 13:43:50;;;;;;;10.40;4.18;;;;;;;;;;5093046;28;20063;-69
2021/07/14 13:46:20;;;;;;;5.20;3.42;;;;;;;;;;5091817;28;20418;-70
2021/07/14 13:49:08;;;;;;;5.95;3.85;;;;;;;;;;5093562;28;20016;-70
2021/07/14 13:51:38;;;;;;;6.07;4.40;;;;;;;;;;5091583;28;20024;-70
2021/07/14 13:54:23;;;;;;;6.07;4.05;;;;;;;;;;5091926;28;20107;-69
2021/07/14 13:56:50;;;;;;;8.80;4.03;;;;;;;;;;5093171;28;20028;-70
2021/07/14 13:59:20;;;;;;;9.30;4.07;;;;;;;;;;5092777;28;20066;-70
2021/07/14 14:02:06;;;;;;;6.60;4.30;;;;;;;;;;5093168;28;20024;-69
2021/07/14 14:04:44;;;;;;;9.20;4.10;;;;;;;;;;5092636;28;20442;-70
2021/07/14 14:07:17;;;;;;;9.00;4.15;;;;;;;;;;5093168;28;20059;-70
2021/07/14 14:09:49;;;;;;;6.00;3.25;;;;;;;;;;5093137;28;20055;-70
2021/07/14 14:12:19;;;;;;;7.95;3.50;;;;;;;;;;5092480;28;20024;-71
2021/07/14 14:14:45;;;;;;;7.95;3.60;;;;;;;;;;5092859;28;20024;-70
2021/07/14 14:17:11;;;;;;;8.02;3.42;;;;;;;;;;5092960;28;20028;-70
2021/07/14 14:19:37;;;;;;;10.60;3.95;;;;;;;;;;5092600;28;20617;-70
2021/07/14 14:22:04;;;;;;;7.10;5.15;;;;;;;;;;5092884;28;20095;-70
2021/07/14 14:24:31;;;;;;;8.68;3.88;;;;;;;;;;5092752;28;20032;-71
2021/07/14 14:27:05;;;;;;;8.13;3.88;;;;;;;;;;5092435;28;20503;-71
2021/07/14 14:29:33;;;;;;;7.60;4.30;;;;;;;;;;5092908;28;20042;-71
2021/07/14 14:32:00;;;;;;;9.23;3.65;;;;;;;;;;5092738;28;20099;-70
2021/07/14 14:34:26;;;;;;;6.22;3.60;;;;;;;;;;5090937;28;20028;-70
2021/07/14 14:36:54;;;;;;;7.80;3.75;;;;;;;;;;5092606;28;20023;-69
2021/07/14 14:39:22;;;;;;;6.53;3.75;;;;;;;;;;5092017;28;20044;-71
2021/07/14 14:41:48;;;;;;;10.85;3.90;;;;;;;;;;5092639;28;20055;-70
2021/07/14 14:44:15;;;;;;;8.77;3.95;;;;;;;;;;5092557;28;20095;-70
2021/07/14 14:46:41;;;;;;;6.15;3.67;;;;;;;;;;5092279;28;20034;-71
2021/07/14 14:49:07;;;;;;;8.45;5.13;;;;;;;;;;5092734;28;20020;-71
2021/07/14 14:51:35;;;;;;;6.95;3.60;;;;;;;;;;5092524;28;20028;-71
2021/07/14 14:54:01;;;;;;;9.32;3.75;;;;;;;;;;5092127;28;20468;-70
2021/07/14 14:56:27;;;;;;;5.70;3.60;;;;;;;;;;5092421;28;20055;-69
2021/07/14 14:58:54;;;;;;;6.72;3.45;;;;;;;;;;5093147;28;20093;-70
2021/07/14 15:01:20;;;;;;;5.90;3.40;;;;;;;;;;5096338;28;20027;-69
2021/07/14 15:03:50;;;;;;;5.85;3.17;;;;;;;;;;5096584;28;20048;-69
2021/07/14 15:06:17;;;;;;;6.63;4.05;;;;;;;;;;5095225;28;20035;-70
2021/07/14 15:08:43;;;;;;;7.43;4.05;;;;;;;;;;5096211;28;20016;-71
2021/07/14 15:11:12;;;;;;;5.85;3.40;;;;;;;;;;5095145;28;20024;-71
2021/07/14 15:13:38;;;;;;;8.32;3.67;;;;;;;;;;5096391;28;20027;-69
2021/07/14 15:16:04;;;;;;;5.90;3.55;;;;;;;;;;5096014;28;20016;-70
2021/07/14 15:18:38;;;;;;;9.00;3.67;;;;;;;;;;5096310;28;20117;-70